sensor_id;sensor_type;location;lat;lon;timestamp;P1;durP1;ratioP1;P2;durP2;ratioP2
39264;SDS011;42646;51.910;7.724;2023-06-22T00:00:30;7.65;;;5.20;;
39264;SDS011;42646;51.910;7.724;2023-06-22T00:03:00;6.75;;;5.35;;
39264;SDS011;42646;51.910;7.724;2023-06-22T00:05:29;7.22;;;5.20;;
39264;SDS011;42646;51.910;7.724;2023-06-22T00:07:57;8.15;;;5.93;;
39264;SDS011;42646;51.910;7.724;2023-06-22T00:10:25;7.65;;;5.07;;
39264;SDS011;42646;51.910;7.724;2023-06-22T00:12:53;7.53;;;5.43;;
39264;SDS011;42646;51.910;7.724;2023-06-22T00:15:21;7.10;;;5.18;;
39264;SDS011;42646;51.910;7.724;2023-06-22T00:17:52;8.00;;;6.07;;
39264;SDS011;42646;51.910;7.724;2023-06-22T00:20:21;7.40;;;5.82;;
39264;SDS011;42646;51.910;7.724;2023-06-22T00:22:49;7.47;;;5.53;;
39264;SDS011;42646;51.910;7.724;2023-06-22T00:25:22;9.57;;;6.65;;
39264;SDS011;42646;51.910;7.724;2023-06-22T00:27:49;7.63;;;6.20;;
39264;SDS011;42646;51.910;7.724;2023-06-22T00:30:19;7.82;;;5.97;;
39264;SDS011;42646;51.910;7.724;2023-06-22T00:32:47;8.15;;;6.38;;
39264;SDS011;42646;51.910;7.724;2023-06-22T00:35:16;7.57;;;5.75;;
39264;SDS011;42646;51.910;7.724;2023-06-22T00:37:44;8.40;;;6.35;;
39264;SDS011;42646;51.910;7.724;2023-06-22T00:40:13;8.55;;;6.60;;
39264;SDS011;42646;51.910;7.724;2023-06-22T00:42:41;8.77;;;6.28;;
39264;SDS011;42646;51.910;7.724;2023-06-22T00:45:09;8.00;;;6.00;;
39264;SDS011;42646;51.910;7.724;2023-06-22T00:47:37;8.23;;;6.13;;
39264;SDS011;42646;51.910;7.724;2023-06-22T00:53:05;8.63;;;6.93;;
39264;SDS011;42646;51.910;7.724;2023-06-22T00:55:35;7.00;;;6.20;;
39264;SDS011;42646;51.910;7.724;2023-06-22T00:58:05;9.02;;;6.82;;
39264;SDS011;42646;51.910;7.724;2023-06-22T01:00:36;8.60;;;7.10;;
39264;SDS011;42646;51.910;7.724;2023-06-22T01:03:05;8.60;;;6.35;;
39264;SDS011;42646;51.910;7.724;2023-06-22T01:05:35;9.02;;;7.38;;
39264;SDS011;42646;51.910;7.724;2023-06-22T01:08:08;7.85;;;6.53;;
39264;SDS011;42646;51.910;7.724;2023-06-22T01:10:51;8.00;;;6.45;;
39264;SDS011;42646;51.910;7.724;2023-06-22T01:13:25;7.90;;;6.80;;
39264;SDS011;42646;51.910;7.724;2023-06-22T01:15:57;9.20;;;6.82;;
39264;SDS011;42646;51.910;7.724;2023-06-22T01:18:30;8.27;;;6.90;;
39264;SDS011;42646;51.910;7.724;2023-06-22T01:20:59;8.90;;;6.45;;
39264;SDS011;42646;51.910;7.724;2023-06-22T01:26:39;8.65;;;6.82;;
39264;SDS011;42646;51.910;7.724;2023-06-22T01:29:12;8.23;;;6.63;;
39264;SDS011;42646;51.910;7.724;2023-06-22T01:31:42;8.93;;;7.37;;
39264;SDS011;42646;51.910;7.724;2023-06-22T01:34:13;10.02;;;7.32;;
39264;SDS011;42646;51.910;7.724;2023-06-22T01:36:42;8.85;;;7.30;;
39264;SDS011;42646;51.910;7.724;2023-06-22T01:39:10;9.43;;;7.10;;
39264;SDS011;42646;51.910;7.724;2023-06-22T01:41:40;9.27;;;7.57;;
39264;SDS011;42646;51.910;7.724;2023-06-22T01:44:09;10.52;;;8.00;;
39264;SDS011;42646;51.910;7.724;2023-06-22T01:46:40;9.57;;;7.57;;
39264;SDS011;42646;51.910;7.724;2023-06-22T01:49:08;9.40;;;7.82;;
39264;SDS011;42646;51.910;7.724;2023-06-22T01:51:42;10.15;;;7.97;;
39264;SDS011;42646;51.910;7.724;2023-06-22T01:54:10;9.80;;;7.93;;
39264;SDS011;42646;51.910;7.724;2023-06-22T01:56:38;10.10;;;7.97;;
39264;SDS011;42646;51.910;7.724;2023-06-22T01:59:09;9.45;;;7.55;;
39264;SDS011;42646;51.910;7.724;2023-06-22T02:01:47;9.98;;;8.05;;
39264;SDS011;42646;51.910;7.724;2023-06-22T02:04:24;10.43;;;7.95;;
39264;SDS011;42646;51.910;7.724;2023-06-22T02:06:55;10.35;;;8.82;;
39264;SDS011;42646;51.910;7.724;2023-06-22T02:09:26;11.35;;;7.85;;
39264;SDS011;42646;51.910;7.724;2023-06-22T02:11:59;9.75;;;8.05;;
39264;SDS011;42646;51.910;7.724;2023-06-22T02:14:31;9.30;;;7.88;;
39264;SDS011;42646;51.910;7.724;2023-06-22T02:17:01;9.48;;;7.85;;
39264;SDS011;42646;51.910;7.724;2023-06-22T02:19:29;10.40;;;8.45;;
39264;SDS011;42646;51.910;7.724;2023-06-22T02:22:01;10.65;;;8.68;;
39264;SDS011;42646;51.910;7.724;2023-06-22T02:27:24;9.95;;;8.10;;
39264;SDS011;42646;51.910;7.724;2023-06-22T02:29:53;10.45;;;8.05;;
39264;SDS011;42646;51.910;7.724;2023-06-22T02:32:23;10.52;;;8.68;;
39264;SDS011;42646;51.910;7.724;2023-06-22T02:34:52;11.40;;;9.10;;
39264;SDS011;42646;51.910;7.724;2023-06-22T02:37:22;11.87;;;8.93;;
39264;SDS011;42646;51.910;7.724;2023-06-22T02:39:51;10.07;;;8.75;;
39264;SDS011;42646;51.910;7.724;2023-06-22T02:42:20;12.02;;;8.75;;
39264;SDS011;42646;51.910;7.724;2023-06-22T02:44:48;12.13;;;8.98;;
39264;SDS011;42646;51.910;7.724;2023-06-22T02:47:17;9.93;;;8.40;;
39264;SDS011;42646;51.910;7.724;2023-06-22T02:49:45;10.48;;;8.38;;
39264;SDS011;42646;51.910;7.724;2023-06-22T02:52:14;9.40;;;8.10;;
39264;SDS011;42646;51.910;7.724;2023-06-22T02:54:44;11.48;;;9.00;;
39264;SDS011;42646;51.910;7.724;2023-06-22T02:57:13;10.27;;;8.45;;
39264;SDS011;42646;51.910;7.724;2023-06-22T02:59:42;11.38;;;9.23;;
39264;SDS011;42646;51.910;7.724;2023-06-22T03:02:11;10.90;;;8.93;;
39264;SDS011;42646;51.910;7.724;2023-06-22T03:04:43;11.32;;;9.10;;
39264;SDS011;42646;51.910;7.724;2023-06-22T03:07:12;11.38;;;9.07;;
39264;SDS011;42646;51.910;7.724;2023-06-22T03:09:39;11.23;;;8.82;;
39264;SDS011;42646;51.910;7.724;2023-06-22T03:12:09;9.77;;;8.43;;
39264;SDS011;42646;51.910;7.724;2023-06-22T03:14:50;10.25;;;9.10;;
39264;SDS011;42646;51.910;7.724;2023-06-22T03:17:18;10.88;;;9.00;;
39264;SDS011;42646;51.910;7.724;2023-06-22T03:19:48;10.73;;;8.70;;
39264;SDS011;42646;51.910;7.724;2023-06-22T03:22:16;10.90;;;8.75;;
39264;SDS011;42646;51.910;7.724;2023-06-22T03:24:44;12.05;;;9.48;;
39264;SDS011;42646;51.910;7.724;2023-06-22T03:27:12;10.57;;;9.02;;
39264;SDS011;42646;51.910;7.724;2023-06-22T03:29:39;10.52;;;8.68;;
39264;SDS011;42646;51.910;7.724;2023-06-22T03:32:09;11.35;;;8.93;;
39264;SDS011;42646;51.910;7.724;2023-06-22T03:34:37;10.88;;;8.70;;
39264;SDS011;42646;51.910;7.724;2023-06-22T03:37:08;11.55;;;8.68;;
39264;SDS011;42646;51.910;7.724;2023-06-22T03:39:36;10.73;;;8.70;;
39264;SDS011;42646;51.910;7.724;2023-06-22T03:42:06;12.20;;;9.10;;
39264;SDS011;42646;51.910;7.724;2023-06-22T03:44:36;11.00;;;8.98;;
39264;SDS011;42646;51.910;7.724;2023-06-22T03:47:05;11.63;;;9.55;;
39264;SDS011;42646;51.910;7.724;2023-06-22T03:49:35;10.98;;;8.75;;
39264;SDS011;42646;51.910;7.724;2023-06-22T03:52:03;10.70;;;9.00;;
39264;SDS011;42646;51.910;7.724;2023-06-22T03:54:32;11.25;;;8.63;;
39264;SDS011;42646;51.910;7.724;2023-06-22T03:57:00;11.57;;;9.35;;
39264;SDS011;42646;51.910;7.724;2023-06-22T03:59:30;13.50;;;9.15;;
39264;SDS011;42646;51.910;7.724;2023-06-22T04:01:58;11.73;;;9.27;;
39264;SDS011;42646;51.910;7.724;2023-06-22T04:04:28;11.60;;;9.20;;
39264;SDS011;42646;51.910;7.724;2023-06-22T04:06:57;10.45;;;8.82;;
39264;SDS011;42646;51.910;7.724;2023-06-22T04:09:25;11.73;;;9.50;;
39264;SDS011;42646;51.910;7.724;2023-06-22T04:11:55;10.73;;;9.40;;
39264;SDS011;42646;51.910;7.724;2023-06-22T04:17:42;11.80;;;8.77;;
39264;SDS011;42646;51.910;7.724;2023-06-22T04:20:11;11.05;;;9.15;;
39264;SDS011;42646;51.910;7.724;2023-06-22T04:22:39;10.90;;;8.85;;
39264;SDS011;42646;51.910;7.724;2023-06-22T04:25:07;10.57;;;8.95;;
39264;SDS011;42646;51.910;7.724;2023-06-22T04:27:36;10.93;;;8.65;;
39264;SDS011;42646;51.910;7.724;2023-06-22T04:30:06;10.70;;;8.90;;
39264;SDS011;42646;51.910;7.724;2023-06-22T04:32:37;12.13;;;9.30;;
39264;SDS011;42646;51.910;7.724;2023-06-22T04:35:06;11.85;;;9.70;;
39264;SDS011;42646;51.910;7.724;2023-06-22T04:37:34;12.00;;;9.88;;
39264;SDS011;42646;51.910;7.724;2023-06-22T04:40:04;11.32;;;8.77;;
39264;SDS011;42646;51.910;7.724;2023-06-22T04:42:33;11.23;;;9.00;;
39264;SDS011;42646;51.910;7.724;2023-06-22T04:47:37;10.88;;;8.85;;
39264;SDS011;42646;51.910;7.724;2023-06-22T04:50:06;10.77;;;9.25;;
39264;SDS011;42646;51.910;7.724;2023-06-22T04:52:34;12.70;;;10.25;;
39264;SDS011;42646;51.910;7.724;2023-06-22T04:55:03;11.52;;;9.88;;
39264;SDS011;42646;51.910;7.724;2023-06-22T05:00:31;12.43;;;10.02;;
39264;SDS011;42646;51.910;7.724;2023-06-22T05:03:02;14.30;;;9.43;;
39264;SDS011;42646;51.910;7.724;2023-06-22T05:05:44;11.65;;;10.05;;
39264;SDS011;42646;51.910;7.724;2023-06-22T05:08:13;11.63;;;9.25;;
39264;SDS011;42646;51.910;7.724;2023-06-22T05:10:42;11.02;;;9.32;;
39264;SDS011;42646;51.910;7.724;2023-06-22T05:13:31;13.15;;;9.43;;
39264;SDS011;42646;51.910;7.724;2023-06-22T05:18:29;12.55;;;10.68;;
39264;SDS011;42646;51.910;7.724;2023-06-22T05:20:58;11.27;;;9.30;;
39264;SDS011;42646;51.910;7.724;2023-06-22T05:23:26;12.93;;;10.05;;
39264;SDS011;42646;51.910;7.724;2023-06-22T05:25:54;12.63;;;9.90;;
39264;SDS011;42646;51.910;7.724;2023-06-22T05:28:24;12.15;;;9.60;;
39264;SDS011;42646;51.910;7.724;2023-06-22T05:30:58;12.07;;;9.63;;
39264;SDS011;42646;51.910;7.724;2023-06-22T05:33:28;12.52;;;10.05;;
39264;SDS011;42646;51.910;7.724;2023-06-22T05:35:55;13.57;;;9.95;;
39264;SDS011;42646;51.910;7.724;2023-06-22T05:38:23;11.23;;;9.52;;
39264;SDS011;42646;51.910;7.724;2023-06-22T05:40:52;11.80;;;10.15;;
39264;SDS011;42646;51.910;7.724;2023-06-22T05:43:20;11.68;;;10.35;;
39264;SDS011;42646;51.910;7.724;2023-06-22T05:45:48;11.15;;;9.55;;
39264;SDS011;42646;51.910;7.724;2023-06-22T05:48:17;13.02;;;9.50;;
39264;SDS011;42646;51.910;7.724;2023-06-22T05:50:45;11.52;;;9.55;;
39264;SDS011;42646;51.910;7.724;2023-06-22T05:53:38;11.73;;;8.88;;
39264;SDS011;42646;51.910;7.724;2023-06-22T05:56:14;10.98;;;9.00;;
39264;SDS011;42646;51.910;7.724;2023-06-22T05:58:41;11.38;;;9.00;;
39264;SDS011;42646;51.910;7.724;2023-06-22T06:01:09;10.85;;;8.68;;
39264;SDS011;42646;51.910;7.724;2023-06-22T06:03:40;10.55;;;9.00;;
39264;SDS011;42646;51.910;7.724;2023-06-22T06:06:08;11.23;;;9.13;;
39264;SDS011;42646;51.910;7.724;2023-06-22T06:08:38;10.48;;;8.63;;
39264;SDS011;42646;51.910;7.724;2023-06-22T06:11:06;12.85;;;9.38;;
39264;SDS011;42646;51.910;7.724;2023-06-22T06:13:33;11.65;;;9.10;;
39264;SDS011;42646;51.910;7.724;2023-06-22T06:18:55;10.52;;;8.68;;
39264;SDS011;42646;51.910;7.724;2023-06-22T06:21:24;10.55;;;9.02;;
39264;SDS011;42646;51.910;7.724;2023-06-22T06:23:55;10.48;;;8.77;;
39264;SDS011;42646;51.910;7.724;2023-06-22T06:26:23;13.00;;;8.98;;
39264;SDS011;42646;51.910;7.724;2023-06-22T06:28:54;10.68;;;7.93;;
39264;SDS011;42646;51.910;7.724;2023-06-22T06:31:24;11.68;;;9.23;;
39264;SDS011;42646;51.910;7.724;2023-06-22T06:33:56;11.75;;;8.95;;
39264;SDS011;42646;51.910;7.724;2023-06-22T06:36:23;11.40;;;9.15;;
39264;SDS011;42646;51.910;7.724;2023-06-22T06:38:51;10.00;;;8.32;;
39264;SDS011;42646;51.910;7.724;2023-06-22T06:41:19;10.48;;;9.13;;
39264;SDS011;42646;51.910;7.724;2023-06-22T06:43:49;9.80;;;8.20;;
39264;SDS011;42646;51.910;7.724;2023-06-22T06:46:17;10.55;;;8.57;;
39264;SDS011;42646;51.910;7.724;2023-06-22T06:48:46;9.93;;;8.48;;
39264;SDS011;42646;51.910;7.724;2023-06-22T06:51:16;11.35;;;8.88;;
39264;SDS011;42646;51.910;7.724;2023-06-22T06:53:44;10.60;;;8.68;;
39264;SDS011;42646;51.910;7.724;2023-06-22T06:56:12;10.05;;;8.30;;
39264;SDS011;42646;51.910;7.724;2023-06-22T06:58:40;9.98;;;8.68;;
39264;SDS011;42646;51.910;7.724;2023-06-22T07:01:13;10.68;;;8.60;;
39264;SDS011;42646;51.910;7.724;2023-06-22T07:03:41;11.27;;;9.20;;
39264;SDS011;42646;51.910;7.724;2023-06-22T07:06:08;9.88;;;8.45;;
39264;SDS011;42646;51.910;7.724;2023-06-22T07:08:38;10.00;;;7.93;;
39264;SDS011;42646;51.910;7.724;2023-06-22T07:11:06;9.90;;;8.20;;
39264;SDS011;42646;51.910;7.724;2023-06-22T07:13:35;10.25;;;8.25;;
39264;SDS011;42646;51.910;7.724;2023-06-22T07:16:04;10.23;;;8.68;;
39264;SDS011;42646;51.910;7.724;2023-06-22T07:18:34;11.98;;;9.88;;
39264;SDS011;42646;51.910;7.724;2023-06-22T07:21:03;13.25;;;9.77;;
39264;SDS011;42646;51.910;7.724;2023-06-22T07:23:32;12.35;;;10.77;;
39264;SDS011;42646;51.910;7.724;2023-06-22T07:26:02;12.10;;;10.27;;
39264;SDS011;42646;51.910;7.724;2023-06-22T07:28:33;13.55;;;10.68;;
39264;SDS011;42646;51.910;7.724;2023-06-22T07:31:03;12.57;;;10.82;;
39264;SDS011;42646;51.910;7.724;2023-06-22T07:33:31;13.27;;;10.80;;
39264;SDS011;42646;51.910;7.724;2023-06-22T07:36:00;13.15;;;11.52;;
39264;SDS011;42646;51.910;7.724;2023-06-22T07:38:28;13.20;;;10.05;;
39264;SDS011;42646;51.910;7.724;2023-06-22T07:40:59;12.68;;;10.82;;
39264;SDS011;42646;51.910;7.724;2023-06-22T07:43:28;11.70;;;9.82;;
39264;SDS011;42646;51.910;7.724;2023-06-22T07:45:56;11.10;;;9.82;;
39264;SDS011;42646;51.910;7.724;2023-06-22T07:48:24;11.45;;;10.07;;
39264;SDS011;42646;51.910;7.724;2023-06-22T07:50:52;11.05;;;9.00;;
39264;SDS011;42646;51.910;7.724;2023-06-22T07:53:23;13.82;;;10.25;;
39264;SDS011;42646;51.910;7.724;2023-06-22T07:55:55;11.57;;;9.85;;
39264;SDS011;42646;51.910;7.724;2023-06-22T07:58:23;12.18;;;10.18;;
39264;SDS011;42646;51.910;7.724;2023-06-22T08:00:52;12.23;;;10.52;;
39264;SDS011;42646;51.910;7.724;2023-06-22T08:03:20;11.77;;;10.50;;
39264;SDS011;42646;51.910;7.724;2023-06-22T08:05:48;12.73;;;10.57;;
39264;SDS011;42646;51.910;7.724;2023-06-22T08:08:16;14.10;;;11.65;;
39264;SDS011;42646;51.910;7.724;2023-06-22T08:10:43;12.10;;;10.48;;
39264;SDS011;42646;51.910;7.724;2023-06-22T08:13:12;12.85;;;11.10;;
39264;SDS011;42646;51.910;7.724;2023-06-22T08:15:40;12.98;;;10.82;;
39264;SDS011;42646;51.910;7.724;2023-06-22T08:21:03;14.48;;;11.25;;
39264;SDS011;42646;51.910;7.724;2023-06-22T08:23:31;12.52;;;10.18;;
39264;SDS011;42646;51.910;7.724;2023-06-22T08:26:00;12.73;;;10.63;;
39264;SDS011;42646;51.910;7.724;2023-06-22T08:28:27;12.80;;;10.15;;
39264;SDS011;42646;51.910;7.724;2023-06-22T08:30:55;11.30;;;10.07;;
39264;SDS011;42646;51.910;7.724;2023-06-22T08:33:23;13.63;;;10.18;;
39264;SDS011;42646;51.910;7.724;2023-06-22T08:35:57;12.63;;;10.55;;
39264;SDS011;42646;51.910;7.724;2023-06-22T08:38:26;12.40;;;10.90;;
39264;SDS011;42646;51.910;7.724;2023-06-22T08:40:55;12.93;;;10.60;;
39264;SDS011;42646;51.910;7.724;2023-06-22T08:43:25;12.70;;;10.90;;
39264;SDS011;42646;51.910;7.724;2023-06-22T08:45:53;13.57;;;10.75;;
39264;SDS011;42646;51.910;7.724;2023-06-22T08:48:21;14.45;;;11.38;;
39264;SDS011;42646;51.910;7.724;2023-06-22T08:50:48;13.70;;;10.98;;
39264;SDS011;42646;51.910;7.724;2023-06-22T08:53:18;12.82;;;10.93;;
39264;SDS011;42646;51.910;7.724;2023-06-22T08:55:47;12.43;;;10.88;;
39264;SDS011;42646;51.910;7.724;2023-06-22T08:58:17;12.63;;;10.48;;
39264;SDS011;42646;51.910;7.724;2023-06-22T09:00:46;12.50;;;10.57;;
39264;SDS011;42646;51.910;7.724;2023-06-22T09:03:14;13.45;;;10.90;;
39264;SDS011;42646;51.910;7.724;2023-06-22T09:05:47;13.82;;;11.82;;
39264;SDS011;42646;51.910;7.724;2023-06-22T09:10:43;15.10;;;12.30;;
39264;SDS011;42646;51.910;7.724;2023-06-22T09:13:13;13.13;;;11.15;;
39264;SDS011;42646;51.910;7.724;2023-06-22T09:15:41;12.52;;;10.25;;
39264;SDS011;42646;51.910;7.724;2023-06-22T09:18:09;12.43;;;10.73;;
39264;SDS011;42646;51.910;7.724;2023-06-22T09:20:40;11.35;;;10.13;;
39264;SDS011;42646;51.910;7.724;2023-06-22T09:23:08;11.20;;;9.80;;
39264;SDS011;42646;51.910;7.724;2023-06-22T09:25:36;12.98;;;9.88;;
39264;SDS011;42646;51.910;7.724;2023-06-22T09:28:05;12.80;;;11.32;;
39264;SDS011;42646;51.910;7.724;2023-06-22T09:30:34;12.18;;;10.65;;
39264;SDS011;42646;51.910;7.724;2023-06-22T09:33:01;11.65;;;9.45;;
39264;SDS011;42646;51.910;7.724;2023-06-22T09:35:33;13.15;;;10.70;;
39264;SDS011;42646;51.910;7.724;2023-06-22T09:38:00;11.88;;;10.60;;
39264;SDS011;42646;51.910;7.724;2023-06-22T09:40:29;12.48;;;10.82;;
39264;SDS011;42646;51.910;7.724;2023-06-22T09:42:58;11.95;;;10.52;;
39264;SDS011;42646;51.910;7.724;2023-06-22T09:45:29;11.50;;;10.25;;
39264;SDS011;42646;51.910;7.724;2023-06-22T09:47:57;12.55;;;10.88;;
39264;SDS011;42646;51.910;7.724;2023-06-22T09:50:26;11.90;;;10.63;;
39264;SDS011;42646;51.910;7.724;2023-06-22T09:52:54;11.80;;;9.90;;
39264;SDS011;42646;51.910;7.724;2023-06-22T09:55:46;11.75;;;10.05;;
39264;SDS011;42646;51.910;7.724;2023-06-22T09:58:15;10.45;;;9.15;;
39264;SDS011;42646;51.910;7.724;2023-06-22T10:00:44;11.32;;;10.13;;
39264;SDS011;42646;51.910;7.724;2023-06-22T10:03:12;14.07;;;9.85;;
39264;SDS011;42646;51.910;7.724;2023-06-22T10:05:40;10.43;;;8.82;;
39264;SDS011;42646;51.910;7.724;2023-06-22T10:08:10;10.18;;;9.10;;
39264;SDS011;42646;51.910;7.724;2023-06-22T10:10:38;10.23;;;9.02;;
39264;SDS011;42646;51.910;7.724;2023-06-22T10:13:07;11.85;;;9.32;;
39264;SDS011;42646;51.910;7.724;2023-06-22T10:15:37;10.35;;;8.77;;
39264;SDS011;42646;51.910;7.724;2023-06-22T10:18:09;9.82;;;8.82;;
39264;SDS011;42646;51.910;7.724;2023-06-22T10:20:37;12.57;;;9.70;;
39264;SDS011;42646;51.910;7.724;2023-06-22T10:23:04;10.27;;;8.85;;
39264;SDS011;42646;51.910;7.724;2023-06-22T10:25:33;11.77;;;10.00;;
39264;SDS011;42646;51.910;7.724;2023-06-22T10:28:02;13.30;;;10.63;;
39264;SDS011;42646;51.910;7.724;2023-06-22T10:30:31;11.75;;;10.15;;
39264;SDS011;42646;51.910;7.724;2023-06-22T10:32:59;10.35;;;9.23;;
39264;SDS011;42646;51.910;7.724;2023-06-22T10:35:28;11.23;;;10.02;;
39264;SDS011;42646;51.910;7.724;2023-06-22T10:38:00;10.75;;;8.60;;
39264;SDS011;42646;51.910;7.724;2023-06-22T10:40:30;9.50;;;8.48;;
39264;SDS011;42646;51.910;7.724;2023-06-22T10:42:59;10.43;;;9.32;;
39264;SDS011;42646;51.910;7.724;2023-06-22T10:45:28;12.93;;;10.90;;
39264;SDS011;42646;51.910;7.724;2023-06-22T10:47:56;11.02;;;9.57;;
39264;SDS011;42646;51.910;7.724;2023-06-22T10:50:24;11.57;;;9.88;;
39264;SDS011;42646;51.910;7.724;2023-06-22T10:52:53;11.93;;;10.15;;
39264;SDS011;42646;51.910;7.724;2023-06-22T10:55:24;11.23;;;8.88;;
39264;SDS011;42646;51.910;7.724;2023-06-22T10:57:52;10.75;;;9.63;;
39264;SDS011;42646;51.910;7.724;2023-06-22T11:00:19;11.68;;;9.95;;
39264;SDS011;42646;51.910;7.724;2023-06-22T11:02:47;10.85;;;9.65;;
39264;SDS011;42646;51.910;7.724;2023-06-22T11:05:16;12.15;;;10.48;;
39264;SDS011;42646;51.910;7.724;2023-06-22T11:07:43;11.73;;;9.90;;
39264;SDS011;42646;51.910;7.724;2023-06-22T11:10:14;11.55;;;9.68;;
39264;SDS011;42646;51.910;7.724;2023-06-22T11:12:42;12.07;;;10.23;;
39264;SDS011;42646;51.910;7.724;2023-06-22T11:15:10;10.52;;;9.40;;
39264;SDS011;42646;51.910;7.724;2023-06-22T11:17:37;10.50;;;9.35;;
39264;SDS011;42646;51.910;7.724;2023-06-22T11:20:06;11.43;;;9.77;;
39264;SDS011;42646;51.910;7.724;2023-06-22T11:22:37;11.20;;;10.00;;
39264;SDS011;42646;51.910;7.724;2023-06-22T11:25:06;10.93;;;9.32;;
39264;SDS011;42646;51.910;7.724;2023-06-22T11:27:37;11.82;;;10.52;;
39264;SDS011;42646;51.910;7.724;2023-06-22T11:30:05;12.98;;;11.45;;
39264;SDS011;42646;51.910;7.724;2023-06-22T11:32:35;13.98;;;11.77;;
39264;SDS011;42646;51.910;7.724;2023-06-22T11:35:03;12.95;;;10.25;;
39264;SDS011;42646;51.910;7.724;2023-06-22T11:37:34;12.02;;;10.73;;
39264;SDS011;42646;51.910;7.724;2023-06-22T11:40:01;13.50;;;12.10;;
39264;SDS011;42646;51.910;7.724;2023-06-22T11:42:34;11.05;;;9.40;;
39264;SDS011;42646;51.910;7.724;2023-06-22T11:45:06;10.27;;;9.18;;
39264;SDS011;42646;51.910;7.724;2023-06-22T11:47:36;13.70;;;9.60;;
39264;SDS011;42646;51.910;7.724;2023-06-22T11:50:04;11.25;;;8.75;;
39264;SDS011;42646;51.910;7.724;2023-06-22T11:52:33;10.80;;;9.00;;
39264;SDS011;42646;51.910;7.724;2023-06-22T11:55:02;10.40;;;8.80;;
39264;SDS011;42646;51.910;7.724;2023-06-22T11:57:33;10.73;;;9.00;;
39264;SDS011;42646;51.910;7.724;2023-06-22T12:00:01;9.30;;;8.20;;
39264;SDS011;42646;51.910;7.724;2023-06-22T12:05:02;10.70;;;9.25;;
39264;SDS011;42646;51.910;7.724;2023-06-22T12:07:30;9.82;;;8.38;;
39264;SDS011;42646;51.910;7.724;2023-06-22T12:09:58;9.32;;;8.32;;
39264;SDS011;42646;51.910;7.724;2023-06-22T12:12:27;9.50;;;8.32;;
39264;SDS011;42646;51.910;7.724;2023-06-22T12:14:54;10.23;;;9.10;;
39264;SDS011;42646;51.910;7.724;2023-06-22T12:17:22;10.18;;;8.95;;
39264;SDS011;42646;51.910;7.724;2023-06-22T12:19:53;10.38;;;9.20;;
39264;SDS011;42646;51.910;7.724;2023-06-22T12:22:22;10.73;;;9.07;;
39264;SDS011;42646;51.910;7.724;2023-06-22T12:24:49;9.07;;;8.18;;
39264;SDS011;42646;51.910;7.724;2023-06-22T12:27:18;9.32;;;8.10;;
39264;SDS011;42646;51.910;7.724;2023-06-22T12:29:45;9.40;;;8.38;;
39264;SDS011;42646;51.910;7.724;2023-06-22T12:32:13;10.43;;;9.20;;
39264;SDS011;42646;51.910;7.724;2023-06-22T12:34:42;8.93;;;8.02;;
39264;SDS011;42646;51.910;7.724;2023-06-22T12:37:11;12.63;;;9.85;;
39264;SDS011;42646;51.910;7.724;2023-06-22T12:39:41;11.90;;;10.70;;
39264;SDS011;42646;51.910;7.724;2023-06-22T12:42:09;11.07;;;9.85;;
39264;SDS011;42646;51.910;7.724;2023-06-22T12:44:38;14.23;;;11.45;;
39264;SDS011;42646;51.910;7.724;2023-06-22T12:47:07;14.90;;;12.00;;
39264;SDS011;42646;51.910;7.724;2023-06-22T12:49:35;14.40;;;11.93;;
39264;SDS011;42646;51.910;7.724;2023-06-22T12:52:08;14.85;;;12.02;;
39264;SDS011;42646;51.910;7.724;2023-06-22T12:54:38;14.57;;;13.02;;
39264;SDS011;42646;51.910;7.724;2023-06-22T12:57:19;14.07;;;12.63;;
39264;SDS011;42646;51.910;7.724;2023-06-22T12:59:47;14.25;;;12.75;;
39264;SDS011;42646;51.910;7.724;2023-06-22T13:02:15;16.40;;;14.45;;
39264;SDS011;42646;51.910;7.724;2023-06-22T13:04:42;17.30;;;14.60;;
39264;SDS011;42646;51.910;7.724;2023-06-22T13:07:10;15.85;;;13.48;;
39264;SDS011;42646;51.910;7.724;2023-06-22T13:09:42;16.33;;;14.60;;
39264;SDS011;42646;51.910;7.724;2023-06-22T13:12:12;17.63;;;14.82;;
39264;SDS011;42646;51.910;7.724;2023-06-22T13:14:40;16.17;;;14.30;;
39264;SDS011;42646;51.910;7.724;2023-06-22T13:17:09;16.73;;;14.27;;
39264;SDS011;42646;51.910;7.724;2023-06-22T13:19:39;16.13;;;14.45;;
39264;SDS011;42646;51.910;7.724;2023-06-22T13:22:10;15.43;;;13.77;;
39264;SDS011;42646;51.910;7.724;2023-06-22T13:24:55;14.88;;;12.75;;
39264;SDS011;42646;51.910;7.724;2023-06-22T13:27:23;15.48;;;13.63;;
39264;SDS011;42646;51.910;7.724;2023-06-22T13:29:51;14.23;;;12.73;;
39264;SDS011;42646;51.910;7.724;2023-06-22T13:32:19;13.55;;;12.02;;
39264;SDS011;42646;51.910;7.724;2023-06-22T13:34:47;13.25;;;11.75;;
39264;SDS011;42646;51.910;7.724;2023-06-22T13:37:15;12.98;;;11.45;;
39264;SDS011;42646;51.910;7.724;2023-06-22T13:39:42;13.88;;;11.52;;
39264;SDS011;42646;51.910;7.724;2023-06-22T13:42:15;14.27;;;9.90;;
39264;SDS011;42646;51.910;7.724;2023-06-22T13:44:45;11.67;;;10.23;;
39264;SDS011;42646;51.910;7.724;2023-06-22T13:47:16;12.38;;;10.52;;
39264;SDS011;42646;51.910;7.724;2023-06-22T13:49:43;12.10;;;9.80;;
39264;SDS011;42646;51.910;7.724;2023-06-22T13:52:11;11.45;;;10.00;;
39264;SDS011;42646;51.910;7.724;2023-06-22T13:54:39;11.98;;;9.43;;
39264;SDS011;42646;51.910;7.724;2023-06-22T13:57:07;12.02;;;9.45;;
39264;SDS011;42646;51.910;7.724;2023-06-22T13:59:36;11.00;;;9.15;;
39264;SDS011;42646;51.910;7.724;2023-06-22T14:02:04;10.85;;;9.27;;
39264;SDS011;42646;51.910;7.724;2023-06-22T14:04:57;10.27;;;8.95;;
39264;SDS011;42646;51.910;7.724;2023-06-22T14:07:25;10.00;;;8.57;;
39264;SDS011;42646;51.910;7.724;2023-06-22T14:09:53;11.07;;;9.48;;
39264;SDS011;42646;51.910;7.724;2023-06-22T14:12:21;10.77;;;9.55;;
39264;SDS011;42646;51.910;7.724;2023-06-22T14:14:50;11.15;;;9.32;;
39264;SDS011;42646;51.910;7.724;2023-06-22T14:17:20;10.70;;;9.20;;
39264;SDS011;42646;51.910;7.724;2023-06-22T14:19:51;13.55;;;9.52;;
39264;SDS011;42646;51.910;7.724;2023-06-22T14:22:20;11.10;;;9.90;;
39264;SDS011;42646;51.910;7.724;2023-06-22T14:24:49;10.63;;;9.52;;
39264;SDS011;42646;51.910;7.724;2023-06-22T14:27:17;11.70;;;10.10;;
39264;SDS011;42646;51.910;7.724;2023-06-22T14:29:45;12.25;;;10.68;;
39264;SDS011;42646;51.910;7.724;2023-06-22T14:32:14;11.45;;;10.13;;
39264;SDS011;42646;51.910;7.724;2023-06-22T14:34:42;12.20;;;10.25;;
39264;SDS011;42646;51.910;7.724;2023-06-22T14:37:10;12.02;;;10.50;;
39264;SDS011;42646;51.910;7.724;2023-06-22T14:39:39;11.27;;;9.95;;
39264;SDS011;42646;51.910;7.724;2023-06-22T14:42:08;11.73;;;10.25;;
39264;SDS011;42646;51.910;7.724;2023-06-22T14:45:00;12.35;;;10.18;;
39264;SDS011;42646;51.910;7.724;2023-06-22T14:47:30;11.57;;;9.98;;
39264;SDS011;42646;51.910;7.724;2023-06-22T14:50:22;12.00;;;10.40;;
39264;SDS011;42646;51.910;7.724;2023-06-22T14:52:50;10.90;;;9.27;;
39264;SDS011;42646;51.910;7.724;2023-06-22T14:55:18;11.85;;;9.57;;
39264;SDS011;42646;51.910;7.724;2023-06-22T14:57:46;11.15;;;9.57;;
39264;SDS011;42646;51.910;7.724;2023-06-22T15:00:13;12.25;;;9.70;;
39264;SDS011;42646;51.910;7.724;2023-06-22T15:02:43;10.07;;;8.98;;
39264;SDS011;42646;51.910;7.724;2023-06-22T15:05:11;10.40;;;8.52;;
39264;SDS011;42646;51.910;7.724;2023-06-22T15:07:40;9.15;;;7.90;;
39264;SDS011;42646;51.910;7.724;2023-06-22T15:10:08;9.25;;;7.70;;
39264;SDS011;42646;51.910;7.724;2023-06-22T15:12:36;11.05;;;8.75;;
39264;SDS011;42646;51.910;7.724;2023-06-22T15:15:05;10.57;;;8.45;;
39264;SDS011;42646;51.910;7.724;2023-06-22T15:17:33;12.20;;;8.30;;